createdAt,value
2016-05-21T00:00:34.639Z,14.93
2016-05-21T00:01:34.625Z,14.85
2016-05-21T00:02:37.987Z,14.89
2016-05-21T00:03:37.959Z,14.81
2016-05-21T00:04:37.586Z,14.89
2016-05-21T00:05:37.855Z,14.96
2016-05-21T00:06:37.701Z,14.86
2016-05-21T00:07:37.486Z,14.89
2016-05-21T00:08:34.785Z,14.77
2016-05-21T00:09:34.444Z,14.86
2016-05-21T00:10:34.212Z,14.78
2016-05-21T00:11:37.586Z,14.85
2016-05-21T00:12:34.371Z,14.79
2016-05-21T00:13:37.185Z,14.78
2016-05-21T00:14:34.141Z,14.74
2016-05-21T00:15:33.988Z,14.68
2016-05-21T00:16:34.202Z,14.73
2016-05-21T00:17:33.960Z,14.62
2016-05-21T00:18:33.875Z,14.53
2016-05-21T00:19:34.024Z,14.59
2016-05-21T00:20:33.876Z,14.56
2016-05-21T00:21:33.741Z,14.48
2016-05-21T00:22:33.685Z,14.45
2016-05-21T00:23:36.689Z,14.45
2016-05-21T00:24:33.726Z,14.48
2016-05-21T00:25:33.292Z,14.58
2016-05-21T00:26:33.375Z,14.45
2016-05-21T00:27:33.660Z,14.53
2016-05-21T00:28:33.413Z,14.53
2016-05-21T00:29:33.369Z,14.58
2016-05-21T00:30:36.169Z,14.66
2016-05-21T00:31:33.313Z,14.66
2016-05-21T00:32:36.238Z,14.67
2016-05-21T00:33:33.162Z,14.67
2016-05-21T00:34:33.134Z,14.58
2016-05-21T00:35:33.106Z,14.59
2016-05-21T00:36:39.076Z,14.61
2016-05-21T00:37:36.017Z,14.56
2016-05-21T00:38:39.145Z,14.59
2016-05-21T00:39:33.131Z,14.51
2016-05-21T00:40:38.853Z,14.59
2016-05-21T00:41:33.372Z,14.56
2016-05-21T00:42:41.764Z,14.55
2016-05-21T00:43:35.705Z,14.59
2016-05-21T00:44:38.863Z,14.61
2016-05-21T00:45:35.601Z,14.66
2016-05-21T00:46:35.604Z,14.66
2016-05-21T00:47:35.794Z,14.62
2016-05-21T00:48:35.609Z,14.59
2016-05-21T00:49:36.127Z,14.62
2016-05-21T00:50:32.380Z,14.67
2016-05-21T00:51:35.164Z,14.66
2016-05-21T00:52:35.526Z,14.74
2016-05-21T00:53:38.232Z,14.67
2016-05-21T00:54:32.234Z,14.74
2016-05-21T00:55:32.190Z,14.73
2016-05-21T00:56:32.162Z,14.73
2016-05-21T00:57:35.023Z,14.82
2016-05-21T00:58:31.964Z,14.71
2016-05-21T00:59:31.920Z,14.68
2016-05-21T01:00:32.298Z,14.68
2016-05-21T01:01:35.035Z,14.62
2016-05-21T01:02:31.771Z,14.62
2016-05-21T01:03:31.946Z,14.67
2016-05-21T01:04:31.512Z,14.67
2016-05-21T01:05:31.639Z,14.62
2016-05-21T01:06:31.579Z,14.61
2016-05-21T01:07:31.660Z,14.56
2016-05-21T01:08:31.537Z,14.66
2016-05-21T01:09:31.478Z,14.66
2016-05-21T01:10:31.386Z,14.63
2016-05-21T01:11:34.389Z,14.56
2016-05-21T01:12:31.517Z,14.44
2016-05-21T01:13:37.285Z,14.4
2016-05-21T01:14:34.414Z,14.41
2016-05-21T01:15:31.166Z,14.43
2016-05-21T01:16:34.122Z,14.34
2016-05-21T01:17:31.047Z,14.37
2016-05-21T01:18:31.033Z,14.34
2016-05-21T01:19:31.271Z,14.38
2016-05-21T01:20:31.102Z,14.34
2016-05-21T01:21:37.276Z,14.36
2016-05-21T01:22:33.685Z,14.25
2016-05-21T01:23:31.094Z,14.36
2016-05-21T01:24:33.846Z,14.36
2016-05-21T01:25:39.693Z,14.31
2016-05-21T01:26:31.101Z,14.23
2016-05-21T01:27:33.588Z,14.3
2016-05-21T01:28:33.388Z,14.22
2016-05-21T01:29:33.688Z,14.2
2016-05-21T01:30:33.660Z,14.2
2016-05-21T01:31:30.381Z,14.22
2016-05-21T01:32:33.556Z,14.19
2016-05-21T01:33:36.355Z,14.18
2016-05-21T01:34:33.232Z,14.19
2016-05-21T01:35:33.048Z,14.15
2016-05-21T01:36:33.145Z,14.25
2016-05-21T01:37:33.100Z,14.12
2016-05-21T01:38:30.368Z,14.23
2016-05-21T01:39:32.996Z,14.15
2016-05-21T01:40:32.967Z,14.18
2016-05-21T01:41:29.798Z,14.11
2016-05-21T01:42:35.848Z,14.13
2016-05-21T01:43:29.820Z,14.16
2016-05-21T01:44:32.760Z,14.13
2016-05-21T01:45:29.731Z,14.05
2016-05-21T01:46:32.672Z,14.12
2016-05-21T01:47:32.689Z,14.12
2016-05-21T01:48:29.567Z,14.04
2016-05-21T01:49:29.727Z,14.11
2016-05-21T01:50:29.479Z,14.03
2016-05-21T01:51:29.419Z,14.04
2016-05-21T01:52:29.218Z,14.03
2016-05-21T01:53:29.533Z,14.04
2016-05-21T01:54:29.255Z,14.04
2016-05-21T01:55:29.211Z,14
2016-05-21T01:56:32.402Z,14.01
2016-05-21T01:57:29.138Z,13.98
2016-05-21T01:58:29.094Z,13.97
2016-05-21T01:59:29.035Z,14.03
2016-05-21T02:00:29.193Z,13.97
2016-05-21T02:01:31.930Z,13.98
2016-05-21T02:02:37.886Z,14.01
2016-05-21T02:03:29.045Z,14.03
2016-05-21T02:04:28.845Z,14.05
2016-05-21T02:05:28.737Z,13.98
2016-05-21T02:06:28.693Z,13.87
2016-05-21T02:07:28.634Z,13.93
2016-05-21T02:08:29.042Z,13.89
2016-05-21T02:09:28.561Z,13.85
2016-05-21T02:10:31.501Z,13.8
2016-05-21T02:11:28.614Z,13.82
2016-05-21T02:12:28.398Z,13.87
2016-05-21T02:13:28.400Z,13.8
2016-05-21T02:14:28.512Z,13.87
2016-05-21T02:15:28.265Z,13.86
2016-05-21T02:16:28.220Z,13.89
2016-05-21T02:17:34.598Z,13.97
2016-05-21T02:18:27.960Z,13.93
2016-05-21T02:19:28.307Z,13.95
2016-05-21T02:20:31.028Z,13.89
2016-05-21T02:21:28.031Z,13.93
2016-05-21T02:22:30.924Z,13.95
2016-05-21T02:23:27.864Z,13.93
2016-05-21T02:24:27.664Z,13.93
2016-05-21T02:25:27.605Z,13.91
2016-05-21T02:26:27.622Z,13.94
2016-05-21T02:27:27.671Z,13.87
2016-05-21T02:28:27.660Z,13.87
2016-05-21T02:29:30.568Z,13.91
2016-05-21T02:30:27.524Z,13.93
2016-05-21T02:31:27.496Z,13.85
2016-05-21T02:32:27.420Z,13.87
2016-05-21T02:33:27.423Z,13.85
2016-05-21T02:34:27.425Z,13.87
2016-05-21T02:35:27.116Z,13.94
2016-05-21T02:36:27.367Z,13.93
2016-05-21T02:37:27.184Z,13.83
2016-05-21T02:38:27.140Z,13.86
2016-05-21T02:39:26.923Z,13.79
2016-05-21T02:40:27.035Z,13.75
2016-05-21T02:41:26.850Z,13.73
2016-05-21T02:42:26.962Z,13.68
2016-05-21T02:43:26.903Z,13.71
2016-05-21T02:44:26.717Z,13.76
2016-05-21T02:45:26.830Z,13.68
2016-05-21T02:46:26.754Z,13.64
2016-05-21T02:47:26.694Z,13.61
2016-05-21T02:48:27.166Z,13.62
2016-05-21T02:49:32.606Z,13.58
2016-05-21T02:50:29.562Z,13.55
2016-05-21T02:51:29.877Z,13.57
2016-05-21T02:52:26.567Z,13.62
2016-05-21T02:53:26.430Z,13.61
2016-05-21T02:54:26.354Z,13.68
2016-05-21T02:55:29.466Z,13.6
2016-05-21T02:56:26.125Z,13.58
2016-05-21T02:57:29.440Z,13.64
2016-05-21T02:58:29.005Z,13.64
2016-05-21T02:59:26.540Z,13.54
2016-05-21T03:00:26.074Z,13.58
2016-05-21T03:01:26.013Z,13.5
2016-05-21T03:02:25.843Z,13.57
2016-05-21T03:03:25.926Z,13.62
2016-05-21T03:04:25.881Z,13.6
2016-05-21T03:05:26.040Z,13.55
2016-05-21T03:06:25.776Z,13.54
2016-05-21T03:07:25.732Z,13.55
2016-05-21T03:08:25.689Z,13.52
2016-05-21T03:09:25.832Z,13.47
2016-05-21T03:10:25.459Z,13.54
2016-05-21T03:11:25.853Z,13.62
2016-05-21T03:12:25.465Z,13.61
2016-05-21T03:13:25.436Z,13.6
2016-05-21T03:14:25.595Z,13.67
2016-05-21T03:15:25.364Z,13.65
2016-05-21T03:16:31.506Z,13.71
2016-05-21T03:17:25.228Z,13.6
2016-05-21T03:18:25.184Z,13.65
2016-05-21T03:19:25.077Z,13.62
2016-05-21T03:20:28.112Z,13.68
2016-05-21T03:21:25.052Z,13.61
2016-05-21T03:22:24.992Z,13.64
2016-05-21T03:23:24.776Z,13.58
2016-05-21T03:24:27.903Z,13.65
2016-05-21T03:25:27.860Z,13.62
2016-05-21T03:26:24.752Z,13.54
2016-05-21T03:27:25.006Z,13.6
2016-05-21T03:28:24.696Z,13.61
2016-05-21T03:29:24.666Z,13.67
2016-05-21T03:30:24.435Z,13.76
2016-05-21T03:31:27.563Z,13.7
2016-05-21T03:32:24.518Z,13.7
2016-05-21T03:33:24.459Z,13.71
2016-05-21T03:34:24.446Z,13.71
2016-05-21T03:35:24.199Z,13.71
2016-05-21T03:36:24.310Z,13.73
2016-05-21T03:37:24.251Z,13.83
2016-05-21T03:38:27.238Z,13.71
2016-05-21T03:39:24.381Z,13.86
2016-05-21T03:40:24.150Z,13.82
2016-05-21T03:41:24.762Z,13.78
2016-05-21T03:42:24.217Z,13.76
2016-05-21T03:43:26.970Z,13.8
2016-05-21T03:44:27.832Z,13.85
2016-05-21T03:45:26.772Z,13.76
2016-05-21T03:46:29.837Z,13.85
2016-05-21T03:47:23.965Z,13.91
2016-05-21T03:48:23.734Z,13.73
2016-05-21T03:49:26.674Z,13.78
2016-05-21T03:50:23.630Z,13.8
2016-05-21T03:51:23.601Z,13.86
2016-05-21T03:52:23.525Z,13.8
2016-05-21T03:53:23.325Z,13.87
2016-05-21T03:54:26.453Z,13.91
2016-05-21T03:55:26.408Z,13.87
2016-05-21T03:56:23.349Z,13.82
2016-05-21T03:57:23.289Z,13.91
2016-05-21T03:58:23.230Z,13.91
2016-05-21T03:59:26.404Z,13.91
2016-05-21T04:00:29.360Z,13.91
2016-05-21T04:01:23.081Z,13.87
2016-05-21T04:02:23.037Z,13.91
2016-05-21T04:03:25.852Z,13.91
2016-05-21T04:04:26.152Z,13.87
2016-05-21T04:05:22.904Z,13.89
2016-05-21T04:06:25.829Z,13.79
2016-05-21T04:07:25.801Z,13.89
2016-05-21T04:08:26.006Z,13.91
2016-05-21T04:09:25.728Z,13.82
2016-05-21T04:10:23.074Z,13.86
2016-05-21T04:11:23.248Z,13.83
2016-05-21T04:12:25.564Z,13.8
2016-05-21T04:13:25.535Z,13.85
2016-05-21T04:14:22.554Z,13.82
2016-05-21T04:15:22.401Z,13.86
2016-05-21T04:16:25.606Z,13.86
2016-05-21T04:17:22.156Z,13.8
2016-05-21T04:18:22.298Z,13.86
2016-05-21T04:19:22.411Z,13.87
2016-05-21T04:20:22.164Z,13.91
2016-05-21T04:21:22.307Z,13.89
2016-05-21T04:22:22.059Z,13.87
2016-05-21T04:23:22.016Z,13.87
2016-05-21T04:24:22.174Z,13.93
2016-05-21T04:25:21.803Z,13.93
2016-05-21T04:26:31.507Z,13.87
2016-05-21T04:27:24.869Z,13.95
2016-05-21T04:28:24.779Z,13.95
2016-05-21T04:29:21.813Z,13.94
2016-05-21T04:30:22.081Z,13.93
2016-05-21T04:31:24.490Z,13.93
2016-05-21T04:32:21.571Z,13.93
2016-05-21T04:33:24.417Z,14.03
2016-05-21T04:34:24.482Z,14.11
2016-05-21T04:35:21.438Z,13.98
2016-05-21T04:36:21.221Z,14.07
2016-05-21T04:37:27.335Z,14.01
2016-05-21T04:38:21.290Z,14.03
2016-05-21T04:39:21.496Z,14.11
2016-05-21T04:40:21.390Z,14.12
2016-05-21T04:41:21.329Z,14.11
2016-05-21T04:42:21.301Z,14.12
2016-05-21T04:43:24.053Z,14.11
2016-05-21T04:44:24.212Z,14.11
2016-05-21T04:45:29.965Z,14.07
2016-05-21T04:46:20.953Z,14.12
2016-05-21T04:47:23.845Z,14.03
2016-05-21T04:48:20.801Z,14.07
2016-05-21T04:49:20.586Z,14.16
2016-05-21T04:50:20.948Z,14.15
2016-05-21T04:51:20.637Z,14.16
2016-05-21T04:52:23.672Z,14.15
2016-05-21T04:53:20.408Z,14.19
2016-05-21T04:54:23.505Z,14.26
2016-05-21T04:55:23.461Z,14.22
2016-05-21T04:56:20.792Z,14.18
2016-05-21T04:57:20.388Z,14.22
2016-05-21T04:58:23.515Z,14.26
2016-05-21T04:59:20.113Z,14.2
2016-05-21T05:00:23.208Z,14.28
2016-05-21T05:01:20.164Z,14.28
2016-05-21T05:02:20.510Z,14.33
2016-05-21T05:03:19.919Z,14.34
2016-05-21T05:04:20.016Z,14.4
2016-05-21T05:05:19.832Z,14.34
2016-05-21T05:06:20.131Z,14.37
2016-05-21T05:07:19.868Z,14.37
2016-05-21T05:08:20.042Z,14.31
2016-05-21T05:09:19.811Z,14.31
2016-05-21T05:10:19.923Z,14.34
2016-05-21T05:11:19.707Z,14.38
2016-05-21T05:12:19.663Z,14.49
2016-05-21T05:13:19.587Z,14.58
2016-05-21T05:14:19.856Z,14.49
2016-05-21T05:15:19.484Z,14.7
2016-05-21T05:16:19.455Z,14.62
2016-05-21T05:17:34.520Z,14.62
2016-05-21T05:18:22.351Z,14.63
2016-05-21T05:19:19.322Z,14.7
2016-05-21T05:20:19.340Z,14.63
2016-05-21T05:21:19.047Z,14.71
2016-05-21T05:22:19.314Z,14.63
2016-05-21T05:23:22.114Z,14.74
2016-05-21T05:24:19.305Z,14.74
2016-05-21T05:25:21.869Z,14.79
2016-05-21T05:26:22.794Z,14.79
2016-05-21T05:27:18.906Z,14.82
2016-05-21T05:28:21.893Z,14.94
2016-05-21T05:29:21.819Z,14.94
2016-05-21T05:30:24.789Z,15.04
2016-05-21T05:31:18.774Z,15.02
2016-05-21T05:32:18.666Z,15.05
2016-05-21T05:33:18.638Z,15.08
2016-05-21T05:34:21.566Z,15.12
2016-05-21T05:35:18.535Z,15.23
2016-05-21T05:36:27.478Z,15.15
2016-05-21T05:37:21.448Z,15.29
2016-05-21T05:38:27.592Z,15.3
2016-05-21T05:39:18.310Z,15.29
2016-05-21T05:40:18.501Z,15.33
2016-05-21T05:41:18.598Z,15.37
2016-05-21T05:42:24.228Z,15.33
2016-05-21T05:43:21.262Z,15.33
2016-05-21T05:44:24.296Z,15.44
2016-05-21T05:45:18.046Z,15.41
2016-05-21T05:46:18.032Z,15.41
2016-05-21T05:47:18.004Z,15.48
2016-05-21T05:48:23.775Z,15.55
2016-05-21T05:49:18.259Z,15.55
2016-05-21T05:50:20.859Z,15.59
2016-05-21T05:51:20.767Z,15.6
2016-05-21T05:52:20.926Z,15.63
2016-05-21T05:53:17.676Z,15.72
2016-05-21T05:54:17.851Z,15.65
2016-05-21T05:55:17.775Z,15.78
2016-05-21T05:56:17.575Z,15.76
2016-05-21T05:57:17.453Z,15.81
2016-05-21T05:58:17.409Z,15.91
2016-05-21T05:59:17.364Z,15.94
2016-05-21T06:00:20.354Z,15.96
2016-05-21T06:01:23.294Z,16.05
2016-05-21T06:02:20.235Z,16.03
2016-05-21T06:03:17.469Z,16
2016-05-21T06:04:20.147Z,16.12
2016-05-21T06:05:30.555Z,16.17
2016-05-21T06:06:20.261Z,16.22
2016-05-21T06:07:28.920Z,16.32
2016-05-21T06:08:22.954Z,16.25
2016-05-21T06:09:20.426Z,16.31
2016-05-21T06:10:19.707Z,16.37
2016-05-21T06:11:17.100Z,16.39
2016-05-21T06:12:16.759Z,16.32
2016-05-21T06:13:16.996Z,16.28
2016-05-21T06:14:16.530Z,16.29
2016-05-21T06:15:21.035Z,16.28
2016-05-21T06:16:22.585Z,16.22
2016-05-21T06:17:16.523Z,16.17
2016-05-21T06:18:16.337Z,16.18
2016-05-21T06:19:22.640Z,16.21
2016-05-21T06:20:16.374Z,16.24
2016-05-21T06:21:19.345Z,16.28
2016-05-21T06:22:19.301Z,16.28
2016-05-21T06:23:19.257Z,16.26
2016-05-21T06:24:16.229Z,16.26
2016-05-21T06:25:16.341Z,16.28
2016-05-21T06:26:22.159Z,16.34
2016-05-21T06:27:16.050Z,16.25
2016-05-21T06:28:15.927Z,16.31
2016-05-21T06:29:18.961Z,16.34
2016-05-21T06:30:16.120Z,16.22
2016-05-21T06:31:18.888Z,16.25
2016-05-21T06:32:24.830Z,16.25
2016-05-21T06:33:18.971Z,16.29
2016-05-21T06:34:18.958Z,16.31
2016-05-21T06:35:18.727Z,16.28
2016-05-21T06:36:16.042Z,16.32
2016-05-21T06:37:15.795Z,16.34
2016-05-21T06:38:15.719Z,16.31
2016-05-21T06:39:15.691Z,16.26
2016-05-21T06:40:15.288Z,16.29
2016-05-21T06:41:15.260Z,16.32
2016-05-21T06:42:18.370Z,16.28
2016-05-21T06:43:15.140Z,16.31
2016-05-21T06:44:15.095Z,16.26
2016-05-21T06:45:15.254Z,16.26
2016-05-21T06:46:15.162Z,16.25
2016-05-21T06:47:15.196Z,16.25
2016-05-21T06:48:15.074Z,16.29
2016-05-21T06:49:18.531Z,16.32
2016-05-21T06:50:15.174Z,16.39
2016-05-21T06:51:21.004Z,16.49
2016-05-21T06:52:14.742Z,16.4
2016-05-21T06:53:18.150Z,16.43
2016-05-21T06:54:20.997Z,16.46
2016-05-21T06:55:26.768Z,16.54
2016-05-21T06:56:17.956Z,16.55
2016-05-21T06:57:17.645Z,16.61
2016-05-21T06:58:14.476Z,16.59
2016-05-21T06:59:14.558Z,16.61
2016-05-21T07:00:17.575Z,16.69
2016-05-21T07:01:35.519Z,16.77
2016-05-21T07:02:17.425Z,16.76
2016-05-21T07:03:17.427Z,16.74
2016-05-21T07:04:14.336Z,16.84
2016-05-21T07:05:14.480Z,16.76
2016-05-21T07:06:17.436Z,16.79
2016-05-21T07:07:17.641Z,16.72
2016-05-21T07:08:14.113Z,16.69
2016-05-21T07:09:14.413Z,16.77
2016-05-21T07:10:17.243Z,16.86
2016-05-21T07:11:14.057Z,16.82
2016-05-21T07:12:17.218Z,16.83
2016-05-21T07:13:26.129Z,17.12
2016-05-21T07:14:17.113Z,17.13
2016-05-21T07:15:13.991Z,17.19
2016-05-21T07:16:19.978Z,17.3
2016-05-21T07:17:13.715Z,17.39
2016-05-21T07:18:22.687Z,17.53
2016-05-21T07:19:13.830Z,17.44
2016-05-21T07:20:16.457Z,17.56
2016-05-21T07:21:16.382Z,17.68
2016-05-21T07:22:19.495Z,17.68
2016-05-21T07:23:16.481Z,17.65
2016-05-21T07:24:13.593Z,17.87
2016-05-21T07:25:19.423Z,17.8
2016-05-21T07:26:13.396Z,17.71
2016-05-21T07:27:13.304Z,17.84
2016-05-21T07:28:13.197Z,17.94
2016-05-21T07:29:16.154Z,17.9
2016-05-21T07:30:16.125Z,17.95
2016-05-21T07:31:16.269Z,17.9
2016-05-21T07:32:13.068Z,17.93
2016-05-21T07:33:12.805Z,17.95
2016-05-21T07:34:15.948Z,18.02
2016-05-21T07:35:13.075Z,17.97
2016-05-21T07:36:12.844Z,17.98
2016-05-21T07:37:12.800Z,18.09
2016-05-21T07:38:13.255Z,18.05
2016-05-21T07:39:15.680Z,18.13
2016-05-21T07:40:13.464Z,18.05
2016-05-21T07:41:18.967Z,18.06
2016-05-21T07:42:12.579Z,18.06
2016-05-21T07:43:18.519Z,18.03
2016-05-21T07:44:19.866Z,18.05
2016-05-21T07:45:12.415Z,18.13
2016-05-21T07:46:19.012Z,18.15
2016-05-21T07:47:15.327Z,18.16
2016-05-21T07:48:18.299Z,18.19
2016-05-21T07:49:12.457Z,18.31
2016-05-21T07:50:15.195Z,18.31
2016-05-21T07:51:21.213Z,18.3
2016-05-21T07:52:12.309Z,18.36
2016-05-21T07:53:21.092Z,18.31
2016-05-21T07:54:15.002Z,18.34
2016-05-21T07:55:15.364Z,18.41
2016-05-21T07:56:14.914Z,18.46
2016-05-21T07:57:12.073Z,18.48
2016-05-21T07:58:17.841Z,18.52
2016-05-21T07:59:17.781Z,18.64
2016-05-21T08:00:14.737Z,18.7
2016-05-21T08:01:11.896Z,18.66
2016-05-21T08:02:14.648Z,18.74
2016-05-21T08:03:11.433Z,18.81
2016-05-21T08:04:17.747Z,18.74
2016-05-21T08:05:17.719Z,18.71
2016-05-21T08:06:11.472Z,18.82
2016-05-21T08:07:14.616Z,18.85
2016-05-21T08:08:17.211Z,18.86
2016-05-21T08:09:11.167Z,18.97
2016-05-21T08:10:11.280Z,18.98
2016-05-21T08:11:11.469Z,19
2016-05-21T08:12:14.035Z,19.15
2016-05-21T08:13:11.132Z,19.09
2016-05-21T08:14:11.180Z,19.11
2016-05-21T08:15:14.044Z,19.11
2016-05-21T08:16:10.889Z,19.08
2016-05-21T08:17:11.018Z,19.09
2016-05-21T08:18:10.957Z,19.08
2016-05-21T08:19:13.710Z,19.2
2016-05-21T08:20:11.010Z,19.2
2016-05-21T08:21:10.762Z,19.37
2016-05-21T08:22:10.718Z,19.42
2016-05-21T08:23:10.690Z,19.49
2016-05-21T08:24:10.489Z,19.52
2016-05-21T08:25:10.804Z,19.52
2016-05-21T08:26:10.963Z,19.48
2016-05-21T08:27:10.559Z,19.47
2016-05-21T08:28:13.672Z,19.56
2016-05-21T08:29:13.456Z,19.52
2016-05-21T08:30:13.365Z,19.62
2016-05-21T08:31:10.320Z,19.59
2016-05-21T08:32:10.120Z,19.55
2016-05-21T08:33:13.075Z,19.52
2016-05-21T08:34:10.391Z,19.53
2016-05-21T08:35:13.331Z,19.53
2016-05-21T08:36:13.084Z,19.59
2016-05-21T08:37:13.056Z,19.64
2016-05-21T08:38:09.995Z,19.6
2016-05-21T08:39:09.967Z,19.63
2016-05-21T08:40:09.907Z,19.75
2016-05-21T08:41:09.988Z,19.72
2016-05-21T08:42:12.944Z,19.79
2016-05-21T08:43:12.790Z,19.74
2016-05-21T08:44:12.715Z,19.72
2016-05-21T08:45:12.686Z,19.77
2016-05-21T08:46:09.657Z,19.77
2016-05-21T08:47:09.613Z,19.66
2016-05-21T08:48:09.382Z,19.63
2016-05-21T08:49:09.338Z,19.63
2016-05-21T08:50:12.324Z,19.81
2016-05-21T08:51:15.437Z,19.71
2016-05-21T08:52:09.407Z,19.78
2016-05-21T08:53:09.348Z,19.87
2016-05-21T08:54:09.132Z,19.84
2016-05-21T08:55:09.245Z,19.79
2016-05-21T08:56:09.215Z,19.79
2016-05-21T08:57:09.359Z,19.84
2016-05-21T08:58:08.940Z,19.78
2016-05-21T08:59:09.271Z,19.77
2016-05-21T09:00:09.023Z,19.78
2016-05-21T09:01:11.979Z,19.89
2016-05-21T09:02:08.934Z,19.94
2016-05-21T09:03:08.938Z,19.94
2016-05-21T09:04:08.831Z,19.94
2016-05-21T09:05:15.224Z,19.96
2016-05-21T09:06:08.743Z,19.99
2016-05-21T09:07:08.808Z,20.07
2016-05-21T09:08:11.873Z,20.14
2016-05-21T09:09:08.626Z,20.14
2016-05-21T09:10:08.786Z,20.27
2016-05-21T09:11:12.272Z,20.26
2016-05-21T09:12:12.494Z,20.3
2016-05-21T09:13:11.433Z,20.27
2016-05-21T09:14:14.592Z,20.26
2016-05-21T09:15:08.642Z,20.3
2016-05-21T09:16:08.285Z,20.21
2016-05-21T09:17:11.257Z,20.37
2016-05-21T09:18:11.282Z,20.46
2016-05-21T09:19:11.228Z,20.39
2016-05-21T09:20:08.094Z,20.49
2016-05-21T09:21:14.603Z,20.55
2016-05-21T09:22:08.361Z,20.6
2016-05-21T09:23:18.401Z,20.68
2016-05-21T09:24:08.272Z,20.68
2016-05-21T09:25:14.236Z,20.78
2016-05-21T09:26:13.918Z,20.71
2016-05-21T09:27:08.568Z,20.86
2016-05-21T09:28:16.980Z,20.93
2016-05-21T09:29:10.735Z,21
2016-05-21T09:30:10.709Z,20.93
2016-05-21T09:31:07.792Z,21.05
2016-05-21T09:32:10.736Z,21.1
2016-05-21T09:33:07.724Z,21.13
2016-05-21T09:34:07.540Z,21.05
2016-05-21T09:35:10.826Z,20.96
2016-05-21T09:36:10.798Z,21
2016-05-21T09:37:07.942Z,20.92
2016-05-21T09:38:10.727Z,21.04
2016-05-21T09:39:07.449Z,20.98
2016-05-21T09:40:07.405Z,20.95
2016-05-21T09:41:07.220Z,20.96
2016-05-21T09:42:10.693Z,21.05
2016-05-21T09:43:07.493Z,21.05
2016-05-21T09:44:07.432Z,21
2016-05-21T09:45:07.184Z,21.04
2016-05-21T09:46:07.156Z,21.08
2016-05-21T09:47:10.096Z,21.11
2016-05-21T09:48:07.131Z,21.08
2016-05-21T09:49:07.009Z,21.14
2016-05-21T09:50:06.994Z,21.22
2016-05-21T09:51:07.029Z,21.2
2016-05-21T09:52:06.891Z,21.22
2016-05-21T09:53:06.847Z,21.35
2016-05-21T09:54:09.661Z,21.38
2016-05-21T09:55:06.758Z,21.48
2016-05-21T09:56:06.699Z,21.53
2016-05-21T09:57:09.872Z,21.54
2016-05-21T09:58:06.610Z,21.45
2016-05-21T09:59:09.597Z,21.4
2016-05-21T10:00:06.835Z,21.41
2016-05-21T10:01:06.493Z,21.3
2016-05-21T10:02:06.449Z,21.33
2016-05-21T10:03:12.858Z,21.23
2016-05-21T10:04:09.221Z,21.19
2016-05-21T10:05:06.160Z,21.17
2016-05-21T10:06:06.366Z,21.22
2016-05-21T10:07:06.244Z,21.35
2016-05-21T10:08:06.340Z,21.33
2016-05-21T10:09:08.984Z,21.29
2016-05-21T10:10:06.393Z,21.33
2016-05-21T10:11:06.082Z,21.35
2016-05-21T10:12:09.742Z,21.38
2016-05-21T10:13:05.823Z,21.38
2016-05-21T10:14:05.934Z,21.37
2016-05-21T10:15:05.890Z,21.3
2016-05-21T10:16:05.830Z,21.3
2016-05-21T10:17:05.537Z,21.37
2016-05-21T10:18:08.773Z,21.3
2016-05-21T10:19:05.697Z,21.22
2016-05-21T10:20:08.653Z,21.25
2016-05-21T10:21:08.626Z,21.23
2016-05-21T10:22:05.831Z,21.4
2016-05-21T10:23:05.568Z,21.33
2016-05-21T10:24:05.493Z,21.37
2016-05-21T10:25:05.355Z,21.29
2016-05-21T10:26:05.419Z,21.32
2016-05-21T10:27:05.563Z,21.45
2016-05-21T10:28:08.519Z,21.47
2016-05-21T10:29:05.272Z,21.51
2016-05-21T10:30:05.227Z,21.72
2016-05-21T10:31:08.402Z,21.83
2016-05-21T10:32:05.139Z,21.94
2016-05-21T10:33:08.033Z,22
2016-05-21T10:34:05.066Z,22.08
2016-05-21T10:35:05.022Z,22.28
2016-05-21T10:36:07.963Z,22.33
2016-05-21T10:37:08.138Z,22.43
2016-05-21T10:38:07.890Z,22.43
2016-05-21T10:39:04.846Z,22.38
2016-05-21T10:40:04.802Z,22.37
2016-05-21T10:41:04.757Z,22.12
2016-05-21T10:42:07.728Z,22.1
2016-05-21T10:43:10.668Z,22.04
2016-05-21T10:44:04.718Z,21.91
2016-05-21T10:45:04.409Z,21.91
2016-05-21T10:46:04.723Z,21.81
2016-05-21T10:47:07.898Z,21.83
2016-05-21T10:48:04.651Z,21.74
2016-05-21T10:49:04.388Z,21.74
2016-05-21T10:50:04.203Z,21.75
2016-05-21T10:51:07.331Z,21.72
2016-05-21T10:52:07.146Z,21.72
2016-05-21T10:53:04.274Z,21.74
2016-05-21T10:54:04.183Z,21.72
2016-05-21T10:55:04.186Z,21.77
2016-05-21T10:56:04.126Z,21.75
2016-05-21T10:57:04.535Z,21.88
2016-05-21T10:58:07.036Z,21.81
2016-05-21T10:59:03.962Z,21.88
2016-05-21T11:00:03.933Z,21.84
2016-05-21T11:01:04.108Z,21.89
2016-05-21T11:02:03.844Z,21.88
2016-05-21T11:03:06.817Z,21.88
2016-05-21T11:04:09.632Z,21.99
2016-05-21T11:05:03.759Z,22.01
2016-05-21T11:06:06.683Z,22.14
2016-05-21T11:07:03.468Z,22.34
2016-05-21T11:08:03.439Z,22.37
2016-05-21T11:09:06.535Z,22.44
2016-05-21T11:10:03.694Z,22.46
2016-05-21T11:11:06.463Z,22.55
2016-05-21T11:12:09.732Z,22.65
2016-05-21T11:13:03.265Z,22.63
2016-05-21T11:14:03.315Z,22.61
2016-05-21T11:15:03.458Z,22.67
2016-05-21T11:16:03.242Z,22.8
2016-05-21T11:17:03.385Z,22.71
2016-05-21T11:18:03.216Z,22.8
2016-05-21T11:19:03.125Z,22.73
2016-05-21T11:20:03.737Z,22.78
2016-05-21T11:21:03.224Z,22.73
2016-05-21T11:22:05.992Z,22.68
2016-05-21T11:23:02.792Z,22.53
2016-05-21T11:24:02.904Z,22.61
2016-05-21T11:25:02.703Z,22.61
2016-05-21T11:26:03.019Z,22.68
2016-05-21T11:27:03.036Z,22.8
2016-05-21T11:28:05.947Z,22.8
2016-05-21T11:29:02.886Z,22.8
2016-05-21T11:30:02.639Z,22.98
2016-05-21T11:31:03.000Z,22.83
2016-05-21T11:32:02.566Z,22.88
2016-05-21T11:33:05.522Z,22.83
2016-05-21T11:34:02.478Z,22.77
2016-05-21T11:35:02.418Z,22.91
2016-05-21T11:36:05.405Z,22.96
2016-05-21T11:37:02.346Z,23.07
2016-05-21T11:38:14.333Z,23.1
2016-05-21T11:39:05.460Z,23.11
2016-05-21T11:40:05.635Z,23.1
2016-05-21T11:41:02.168Z,23.13
2016-05-21T11:42:05.171Z,23.18
2016-05-21T11:43:05.111Z,23.25
2016-05-21T11:44:05.052Z,23.32
2016-05-21T11:45:02.210Z,23.28
2016-05-21T11:46:02.151Z,23.44
2016-05-21T11:47:01.857Z,23.48
2016-05-21T11:48:01.876Z,23.47
2016-05-21T11:49:04.862Z,23.52
2016-05-21T11:50:01.802Z,23.36
2016-05-21T11:51:01.961Z,23.33
2016-05-21T11:52:04.714Z,23.23
2016-05-21T11:53:01.701Z,23.25
2016-05-21T11:54:04.625Z,23.23
2016-05-21T11:55:04.597Z,23.23
2016-05-21T11:56:04.537Z,23.17
2016-05-21T11:57:01.462Z,23.14
2016-05-21T11:58:01.448Z,23.08
2016-05-21T11:59:01.264Z,23.1
2016-05-21T12:00:01.578Z,23.2
2016-05-21T12:01:01.331Z,23.17
2016-05-21T12:02:01.271Z,23.44
2016-05-21T12:03:01.228Z,23.48
2016-05-21T12:04:01.200Z,23.58
2016-05-21T12:05:04.171Z,23.55
2016-05-21T12:06:04.344Z,23.62
2016-05-21T12:07:01.066Z,23.48
2016-05-21T12:08:01.069Z,23.26
2016-05-21T12:09:00.978Z,23.33
2016-05-21T12:10:06.794Z,23.25
2016-05-21T12:11:04.108Z,23.28
2016-05-21T12:12:00.877Z,23.21
2016-05-21T12:13:01.238Z,23.26
2016-05-21T12:14:03.991Z,23.34
2016-05-21T12:15:03.760Z,23.28
2016-05-21T12:16:00.935Z,23.32
2016-05-21T12:17:03.703Z,23.45
2016-05-21T12:18:00.471Z,23.39
2016-05-21T12:19:00.818Z,23.33
2016-05-21T12:20:00.726Z,23.25
2016-05-21T12:21:03.495Z,23.4
2016-05-21T12:22:00.420Z,23.47
2016-05-21T12:23:06.422Z,23.54
2016-05-21T12:24:03.378Z,23.56
2016-05-21T12:25:06.365Z,23.73
2016-05-21T12:26:06.195Z,23.91
2016-05-21T12:27:00.276Z,24.07
2016-05-21T12:28:03.186Z,24.09
2016-05-21T12:29:03.141Z,24.03
2016-05-21T12:30:00.097Z,24.06
2016-05-21T12:30:59.912Z,23.88
2016-05-21T12:32:00.025Z,23.76
2016-05-21T12:33:03.215Z,23.73
2016-05-21T12:34:05.952Z,23.66
2016-05-21T12:35:02.955Z,23.66
2016-05-21T12:36:06.066Z,23.58
2016-05-21T12:37:05.819Z,23.69
2016-05-21T12:37:59.790Z,23.67
2016-05-21T12:39:02.934Z,23.59
2016-05-21T12:39:59.702Z,23.69
2016-05-21T12:40:59.657Z,23.85
2016-05-21T12:42:00.567Z,23.95
2016-05-21T12:42:59.538Z,23.99
2016-05-21T12:44:02.526Z,24.06
2016-05-21T12:45:05.560Z,24.16
2016-05-21T12:45:59.421Z,24.11
2016-05-21T12:46:59.268Z,24.19
2016-05-21T12:48:02.364Z,24.19
2016-05-21T12:48:59.320Z,24.28
2016-05-21T12:50:05.276Z,24.36
2016-05-21T12:50:59.076Z,24.46
2016-05-21T12:52:02.188Z,24.34
2016-05-21T12:53:08.175Z,24.34
2016-05-21T12:54:06.381Z,24.36
2016-05-21T12:55:05.273Z,24.46